Time;durP1;ratioP1;P1;durP2;ratioP2;P2;SDS_P1;SDS_P2;PMS_P1;PMS_P2;Temp;Humidity;BMP_temperature;BMP_pressure;BME280_temperature;BME280_humidity;BME280_pressure;Samples;Min_cycle;Max_cycle;Signal;HPM_P1;HPM_P2
2023/08/19 00:01:08;;;;;;;39.50;35.13;;;19.00;99.90;;;;;;4993020;23;20124;-81
2023/08/19 00:06:35;;;;;;;45.38;37.13;;;19.10;99.90;;;;;;4999124;28;20499;-81
2023/08/19 00:09:04;;;;;;;44.05;34.22;;;19.10;99.90;;;;;;4980125;28;20233;-77
2023/08/19 00:11:31;;;;;;;42.45;36.95;;;19.10;99.90;;;;;;4983711;28;20121;-80
2023/08/19 00:13:57;;;;;;;40.42;34.47;;;19.00;99.90;;;;;;4983842;28;20089;-78
2023/08/19 00:16:23;;;;;;;43.20;35.47;;;19.00;99.90;;;;;;4984101;28;20788;-80
2023/08/19 00:18:49;;;;;;;43.42;36.10;;;19.00;99.90;;;;;;5000137;28;20061;-80
2023/08/19 00:21:15;;;;;;;40.13;34.17;;;19.00;99.90;;;;;;4984004;28;20713;-80
2023/08/19 00:23:41;;;;;;;49.65;37.28;;;18.90;99.90;;;;;;4984368;28;20057;-79
2023/08/19 00:26:07;;;;;;;45.88;37.85;;;18.90;99.90;;;;;;4983353;28;20054;-78
2023/08/19 00:28:33;;;;;;;40.10;35.03;;;18.90;99.90;;;;;;4981132;28;20104;-79
2023/08/19 00:30:59;;;;;;;37.17;33.08;;;18.90;99.90;;;;;;4982805;28;20057;-76
2023/08/19 00:33:25;;;;;;;42.85;35.80;;;20.90;99.90;;;;;;4982801;28;20093;-80
2023/08/19 00:35:53;;;;;;;43.28;33.70;;;18.70;99.90;;;;;;4981996;28;20054;-77
2023/08/19 00:38:20;;;;;;;35.53;31.65;;;18.70;99.90;;;;;;4982505;28;20137;-78
2023/08/19 00:40:46;;;;;;;35.88;31.70;;;18.70;99.90;;;;;;4982539;28;20096;-78
2023/08/19 00:43:11;;;;;;;35.03;31.35;;;20.90;99.90;;;;;;4997589;23;20046;-81
2023/08/19 00:45:44;;;;;;;37.60;33.67;;;18.60;99.90;;;;;;4999251;28;20066;-76
2023/08/19 00:48:12;;;;;;;42.45;35.13;;;20.80;99.90;;;;;;4983393;28;20046;-77
2023/08/19 00:50:39;;;;;;;40.42;32.55;;;18.60;99.90;;;;;;4984231;28;20089;-80
2023/08/19 00:53:07;;;;;;;39.25;33.63;;;18.60;99.90;;;;;;4984363;28;20729;-79
2023/08/19 00:55:33;;;;;;;38.47;34.40;;;18.60;99.90;;;;;;5000105;28;20525;-79
2023/08/19 00:58:03;;;;;;;40.20;34.53;;;18.60;99.90;;;;;;4993276;28;20061;-78
2023/08/19 01:00:32;;;;;;;40.20;36.05;;;18.60;99.90;;;;;;4977585;28;20061;-81
2023/08/19 01:03:06;;;;;;;43.20;35.13;;;18.60;99.90;;;;;;4983063;28;20167;-79
2023/08/19 01:06:01;;;;;;;41.78;35.95;;;18.70;99.90;;;;;;4983333;28;20057;-79
2023/08/19 01:08:38;;;;;;;39.92;34.75;;;18.70;99.90;;;;;;4982581;28;20088;-78
2023/08/19 01:11:14;;;;;;;47.55;37.67;;;18.80;99.90;;;;;;4979867;28;20116;-77
2023/08/19 01:14:19;;;;;;;52.38;40.63;;;18.80;99.90;;;;;;4982570;28;20737;-77
2023/08/19 01:16:50;;;;;;;45.08;37.00;;;18.80;99.90;;;;;;4968086;28;20163;-78
2023/08/19 01:19:30;;;;;;;42.25;36.30;;;18.80;99.90;;;;;;4983347;28;20046;-76
2023/08/19 01:22:04;;;;;;;45.35;39.17;;;18.80;99.90;;;;;;4980956;28;20139;-75
2023/08/19 01:24:39;;;;;;;45.38;38.13;;;18.90;99.90;;;;;;5002153;28;20582;-78
2023/08/19 01:27:06;;;;;;;45.70;38.90;;;18.90;99.90;;;;;;4987424;28;20050;-80
2023/08/19 01:29:32;;;;;;;52.42;41.35;;;18.90;99.90;;;;;;4983340;28;20088;-80
2023/08/19 01:31:59;;;;;;;48.38;38.55;;;18.90;99.90;;;;;;5001369;28;20057;-78
2023/08/19 01:34:25;;;;;;;52.08;39.70;;;18.90;99.90;;;;;;4984017;28;20585;-78
2023/08/19 01:37:00;;;;;;;48.70;41.22;;;18.80;99.90;;;;;;4999800;28;20511;-77
2023/08/19 01:39:28;;;;;;;43.42;37.33;;;18.80;99.90;;;;;;4982079;28;20629;-76
2023/08/19 01:41:55;;;;;;;43.08;32.55;;;18.80;99.90;;;;;;4983330;28;20132;-78
2023/08/19 01:44:22;;;;;;;28.95;25.00;;;18.80;99.90;;;;;;4985193;28;20128;-78
2023/08/19 01:46:48;;;;;;;38.80;31.15;;;18.70;99.90;;;;;;4983845;28;20093;-81
2023/08/19 01:49:14;;;;;;;37.90;32.47;;;19.80;99.90;;;;;;4983430;28;20521;-78
2023/08/19 01:51:39;;;;;;;48.78;39.35;;;18.70;99.90;;;;;;4983433;28;20045;-78
2023/08/19 01:54:05;;;;;;;55.05;40.38;;;18.70;99.90;;;;;;4985468;28;20130;-78
2023/08/19 01:56:31;;;;;;;59.67;40.78;;;18.70;99.90;;;;;;4986552;28;20712;-76
2023/08/19 01:58:58;;;;;;;54.72;38.20;;;18.70;99.90;;;;;;4980935;28;20470;-77
2023/08/19 02:01:24;;;;;;;49.08;36.85;;;18.70;99.90;;;;;;4983495;28;20130;-76
2023/08/19 02:03:50;;;;;;;48.97;38.83;;;18.70;99.90;;;;;;5008937;28;20200;-78
2023/08/19 02:06:16;;;;;;;45.35;39.03;;;18.70;99.90;;;;;;4989142;28;20049;-79
2023/08/19 02:08:42;;;;;;;68.90;40.17;;;18.70;99.90;;;;;;4986409;28;20057;-80
2023/08/19 02:11:07;;;;;;;51.60;39.50;;;18.60;99.90;;;;;;4986575;28;20046;-77
2023/08/19 02:13:33;;;;;;;46.50;36.03;;;18.60;99.90;;;;;;4987884;28;20058;-78
2023/08/19 02:15:59;;;;;;;39.75;35.50;;;18.60;99.90;;;;;;4986286;28;20065;-76
2023/08/19 02:18:26;;;;;;;50.30;38.50;;;18.50;99.90;;;;;;4986632;28;20049;-79
2023/08/19 02:20:51;;;;;;;50.50;37.05;;;18.60;99.90;;;;;;4988819;28;20057;-80
2023/08/19 02:23:17;;;;;;;44.55;37.28;;;18.50;99.90;;;;;;4985807;28;20062;-78
2023/08/19 02:25:43;;;;;;;43.72;34.85;;;18.50;99.90;;;;;;4985583;28;20573;-79
2023/08/19 02:28:09;;;;;;;43.08;38.05;;;18.50;99.90;;;;;;4980085;28;20054;-81
2023/08/19 02:30:35;;;;;;;46.97;38.70;;;18.60;99.90;;;;;;4984741;28;20054;-77
2023/08/19 02:33:05;;;;;;;51.58;38.90;;;18.60;99.90;;;;;;5000385;28;20282;-76
2023/08/19 02:35:31;;;;;;;47.15;36.72;;;18.60;99.90;;;;;;4983647;28;20054;-76
2023/08/19 02:37:57;;;;;;;47.50;37.33;;;18.60;99.90;;;;;;4982652;28;20815;-79
2023/08/19 02:40:23;;;;;;;45.88;38.45;;;18.60;99.90;;;;;;4979313;23;20157;-78
2023/08/19 02:42:49;;;;;;;36.58;32.75;;;18.60;99.90;;;;;;4966357;28;20085;-76
2023/08/19 02:45:14;;;;;;;46.55;38.45;;;18.60;99.90;;;;;;4982540;23;20146;-81
2023/08/19 02:47:40;;;;;;;45.55;37.55;;;18.70;99.90;;;;;;5001643;28;20162;-75
2023/08/19 02:50:07;;;;;;;48.03;36.78;;;18.70;99.90;;;;;;4983043;28;20049;-79
2023/08/19 02:52:32;;;;;;;50.53;38.83;;;18.70;99.90;;;;;;4990539;23;20795;-78
2023/08/19 02:54:58;;;;;;;48.55;36.30;;;18.70;99.90;;;;;;4992923;23;20152;-78
2023/08/19 02:57:24;;;;;;;38.92;33.40;;;18.60;99.90;;;;;;5019090;28;20136;-82
2023/08/19 02:59:50;;;;;;;42.13;35.35;;;18.60;99.90;;;;;;4985468;28;20523;-79
2023/08/19 03:02:16;;;;;;;44.85;33.75;;;18.50;99.90;;;;;;4997716;23;20056;-78
2023/08/19 03:04:42;;;;;;;42.47;36.85;;;18.60;99.90;;;;;;4995532;23;20061;-80
2023/08/19 03:07:08;;;;;;;39.88;34.38;;;18.60;99.90;;;;;;4989755;28;20699;-78
2023/08/19 03:09:33;;;;;;;51.47;38.13;;;18.60;99.90;;;;;;4988365;28;20832;-77
2023/08/19 03:11:59;;;;;;;39.80;34.83;;;18.60;99.90;;;;;;4988818;28;20603;-78
2023/08/19 03:14:25;;;;;;;39.35;34.78;;;18.60;99.90;;;;;;4990178;28;20317;-80
2023/08/19 03:16:51;;;;;;;51.15;36.92;;;18.50;99.90;;;;;;4988838;28;20051;-80
2023/08/19 03:19:17;;;;;;;45.97;34.92;;;18.50;99.90;;;;;;4990845;28;20121;-80
2023/08/19 03:21:42;;;;;;;38.22;30.85;;;18.50;99.90;;;;;;4989027;28;20060;-79
2023/08/19 03:24:08;;;;;;;45.25;35.58;;;18.50;99.90;;;;;;5003587;28;20052;-79
2023/08/19 03:26:34;;;;;;;45.95;35.45;;;18.50;99.90;;;;;;4988568;28;20037;-80
2023/08/19 03:29:00;;;;;;;39.45;33.97;;;18.50;99.90;;;;;;4999293;28;20053;-80
2023/08/19 03:31:26;;;;;;;37.80;32.28;;;18.40;99.90;;;;;;4989444;28;20513;-81
2023/08/19 03:33:53;;;;;;;39.30;34.00;;;18.40;99.90;;;;;;5006352;28;20083;-76
2023/08/19 03:36:19;;;;;;;50.55;35.97;;;18.40;99.90;;;;;;4988727;28;20056;-80
2023/08/19 03:38:45;;;;;;;49.20;36.17;;;18.50;99.90;;;;;;4989295;28;20738;-79
2023/08/19 03:41:11;;;;;;;37.33;32.63;;;18.50;99.90;;;;;;4989903;28;20084;-80
2023/08/19 03:43:36;;;;;;;41.58;32.22;;;18.50;99.90;;;;;;4989010;28;20132;-77
2023/08/19 03:46:02;;;;;;;34.42;30.00;;;18.50;99.90;;;;;;5005040;28;20045;-79
2023/08/19 03:48:28;;;;;;;36.25;31.55;;;18.50;99.90;;;;;;4987963;28;20541;-79
2023/08/19 03:50:54;;;;;;;41.35;31.75;;;18.60;99.90;;;;;;5004460;28;20732;-80
2023/08/19 03:53:20;;;;;;;43.38;32.72;;;18.60;99.90;;;;;;4988138;28;20521;-77
2023/08/19 03:55:48;;;;;;;34.28;30.65;;;16.50;99.90;;;;;;4988444;28;20087;-82
2023/08/19 03:58:14;;;;;;;34.22;30.52;;;18.70;99.90;;;;;;5008269;28;20091;-81
2023/08/19 04:00:40;;;;;;;31.35;28.13;;;18.70;99.90;;;;;;4975119;28;20405;-78
2023/08/19 04:03:06;;;;;;;34.72;29.00;;;18.70;99.90;;;;;;4988775;28;20057;-82
2023/08/19 04:05:31;;;;;;;33.70;27.90;;;18.80;99.90;;;;;;4988164;28;20065;-76
2023/08/19 04:07:57;;;;;;;31.88;27.13;;;18.80;99.90;;;;;;4988285;28;20057;-85
2023/08/19 04:10:23;;;;;;;30.35;26.50;;;18.90;99.90;;;;;;4987784;28;20050;-80
2023/08/19 04:12:49;;;;;;;28.63;25.63;;;18.90;99.90;;;;;;4986762;28;20060;-80
2023/08/19 04:15:15;;;;;;;27.98;24.50;;;18.90;99.90;;;;;;4986897;28;20048;-77
2023/08/19 04:17:40;;;;;;;31.15;26.65;;;18.90;99.90;;;;;;4995143;23;20110;-77
2023/08/19 04:20:10;;;;;;;28.55;24.75;;;18.90;99.90;;;;;;4996908;23;20088;-75
2023/08/19 04:22:37;;;;;;;28.42;24.15;;;19.10;99.90;;;;;;5018813;28;20058;-76
2023/08/19 04:25:03;;;;;;;25.83;23.23;;;19.10;99.90;;;;;;4999825;28;20071;-78
2023/08/19 04:27:31;;;;;;;28.38;24.80;;;19.00;99.90;;;;;;4994093;23;20376;-78
2023/08/19 04:29:57;;;;;;;28.63;24.33;;;19.00;99.90;;;;;;4986974;28;20069;-77
2023/08/19 04:32:23;;;;;;;25.70;22.15;;;19.10;99.90;;;;;;4999161;23;20049;-77
2023/08/19 04:34:49;;;;;;;25.05;22.48;;;19.10;99.90;;;;;;4968024;28;20526;-82
2023/08/19 04:37:15;;;;;;;26.77;23.42;;;19.20;99.90;;;;;;4975579;23;20115;-80
2023/08/19 04:39:41;;;;;;;26.95;23.17;;;19.20;99.90;;;;;;4983286;28;20058;-80
2023/08/19 04:42:07;;;;;;;25.33;22.73;;;19.20;99.90;;;;;;4967607;28;20052;-77
2023/08/19 04:44:33;;;;;;;24.13;21.58;;;19.40;99.90;;;;;;4983743;28;20503;-78
2023/08/19 04:47:00;;;;;;;22.25;20.05;;;19.30;99.90;;;;;;4969143;28;20132;-81
2023/08/19 04:49:26;;;;;;;22.27;20.08;;;19.40;99.90;;;;;;4983361;28;20144;-76
2023/08/19 04:51:51;;;;;;;24.20;20.35;;;19.50;99.90;;;;;;4966993;28;20053;-77
2023/08/19 04:54:17;;;;;;;21.50;19.20;;;19.60;99.90;;;;;;4967041;28;20104;-76
2023/08/19 04:56:43;;;;;;;20.77;18.67;;;19.60;99.90;;;;;;4967192;28;20034;-76
2023/08/19 04:59:09;;;;;;;20.70;18.42;;;19.70;99.90;;;;;;4968194;28;20050;-77
2023/08/19 05:01:35;;;;;;;20.35;17.98;;;19.80;99.90;;;;;;4967205;28;20053;-76
2023/08/19 05:04:01;;;;;;;21.13;17.55;;;19.80;99.90;;;;;;4983717;28;20042;-79
2023/08/19 05:06:26;;;;;;;19.20;17.23;;;19.90;99.90;;;;;;4966932;28;20053;-76
2023/08/19 05:08:52;;;;;;;19.42;17.42;;;19.90;99.90;;;;;;4966728;28;20058;-75
2023/08/19 05:11:18;;;;;;;18.25;16.35;;;20.00;99.90;;;;;;4966232;28;20054;-73
2023/08/19 05:13:44;;;;;;;19.42;16.83;;;20.10;99.90;;;;;;4966997;28;20053;-78
2023/08/19 05:16:10;;;;;;;18.92;16.92;;;20.20;99.90;;;;;;4982708;28;20100;-77
2023/08/19 05:18:36;;;;;;;22.65;16.80;;;20.30;99.90;;;;;;4966768;28;20077;-81
2023/08/19 05:21:02;;;;;;;17.38;15.52;;;20.40;99.90;;;;;;4969272;28;20553;-74
2023/08/19 05:23:28;;;;;;;16.05;14.52;;;20.60;99.90;;;;;;4966506;28;20045;-75
2023/08/19 05:25:54;;;;;;;17.02;15.13;;;20.60;99.90;;;;;;4990496;23;20088;-74
2023/08/19 05:28:20;;;;;;;15.65;13.60;;;20.70;99.90;;;;;;5007392;23;20057;-74
2023/08/19 05:30:46;;;;;;;16.45;14.10;;;20.90;99.90;;;;;;4985198;28;20059;-73
2023/08/19 05:33:12;;;;;;;15.70;13.88;;;21.00;99.90;;;;;;4987259;28;20053;-74
2023/08/19 05:35:38;;;;;;;16.48;14.50;;;21.10;99.90;;;;;;4985902;28;20045;-76
2023/08/19 05:38:04;;;;;;;16.65;13.35;;;21.30;99.90;;;;;;4986827;28;20175;-74
2023/08/19 05:40:29;;;;;;;15.32;13.82;;;21.50;99.90;;;;;;4986184;28;20105;-75
2023/08/19 05:42:55;;;;;;;14.95;13.32;;;21.60;99.90;;;;;;4985883;28;20469;-75
2023/08/19 05:45:21;;;;;;;12.43;11.15;;;21.90;99.90;;;;;;4986886;28;20132;-73
2023/08/19 05:47:47;;;;;;;17.10;12.85;;;22.30;99.90;;;;;;4999587;23;20772;-75
2023/08/19 05:50:13;;;;;;;16.92;12.75;;;22.20;99.90;;;;;;5000302;28;20139;-73
2023/08/19 05:52:39;;;;;;;13.18;11.57;;;22.10;99.90;;;;;;5000212;28;20052;-75
2023/08/19 05:55:05;;;;;;;14.70;12.45;;;21.90;99.90;;;;;;4983474;28;20053;-73
2023/08/19 05:57:31;;;;;;;14.48;12.20;;;21.80;99.90;;;;;;4982664;28;20050;-73
2023/08/19 05:59:57;;;;;;;15.75;12.32;;;21.80;99.90;;;;;;4983305;28;20068;-78
2023/08/19 06:02:23;;;;;;;15.88;12.80;;;21.70;99.90;;;;;;4983756;28;20953;-74
2023/08/19 06:04:49;;;;;;;16.00;11.82;;;21.60;99.90;;;;;;4982998;28;20053;-74
2023/08/19 06:07:19;;;;;;;14.60;12.60;;;21.60;99.90;;;;;;4982423;28;20041;-74
2023/08/19 06:09:45;;;;;;;17.42;12.38;;;21.50;99.90;;;;;;4983091;28;20050;-76
2023/08/19 06:12:11;;;;;;;13.73;12.32;;;21.60;99.90;;;;;;4982567;28;20572;-74
2023/08/19 06:14:37;;;;;;;17.75;12.48;;;21.70;99.90;;;;;;4982281;28;20490;-75
2023/08/19 06:17:03;;;;;;;14.73;11.25;;;21.70;99.90;;;;;;4982433;28;20046;-73
2023/08/19 06:19:29;;;;;;;12.80;11.40;;;21.80;99.90;;;;;;4984017;28;20049;-76
2023/08/19 06:21:55;;;;;;;13.20;11.43;;;21.90;99.90;;;;;;4984580;28;20600;-79
2023/08/19 06:24:20;;;;;;;14.40;11.80;;;22.00;99.90;;;;;;5001825;28;20128;-76
2023/08/19 06:26:46;;;;;;;12.75;11.45;;;22.00;99.90;;;;;;4986844;28;20309;-72
2023/08/19 06:29:12;;;;;;;16.98;12.60;;;22.00;99.90;;;;;;4981005;28;20558;-74
2023/08/19 06:31:38;;;;;;;13.27;11.70;;;21.90;99.90;;;;;;4983219;28;20554;-76
2023/08/19 06:34:05;;;;;;;16.60;12.68;;;21.90;99.90;;;;;;4984225;28;20045;-74
2023/08/19 06:36:33;;;;;;;13.95;12.07;;;21.80;99.90;;;;;;4984286;28;20050;-74
2023/08/19 06:39:07;;;;;;;13.20;11.63;;;21.80;99.90;;;;;;4983266;28;20053;-80
2023/08/19 06:41:41;;;;;;;13.73;11.63;;;21.80;99.90;;;;;;4983432;28;20078;-76
2023/08/19 06:46:37;;;;;;;11.90;10.52;;;21.80;99.90;;;;;;4961237;28;20093;-74
2023/08/19 06:49:03;;;;;;;12.95;11.75;;;21.80;99.90;;;;;;4972817;28;20058;-74
2023/08/19 06:51:29;;;;;;;16.70;11.48;;;21.80;99.90;;;;;;4948019;28;20085;-75
2023/08/19 06:53:55;;;;;;;12.98;11.68;;;21.70;99.90;;;;;;4946293;28;20042;-85
2023/08/19 06:56:32;;;;;;;14.82;11.13;;;24.90;99.90;;;;;;4953376;28;20253;-77
2023/08/19 06:59:46;;;;;;;12.55;10.48;;;21.70;99.90;;;;;;4944590;28;20046;-76
2023/08/19 07:02:15;;;;;;;14.27;12.02;;;21.70;99.90;;;;;;4963096;28;20136;-75
2023/08/19 07:04:45;;;;;;;14.43;11.27;;;21.70;99.90;;;;;;4962253;28;20050;-80
2023/08/19 07:07:11;;;;;;;13.45;11.65;;;21.70;99.90;;;;;;4962617;28;20108;-72
2023/08/19 07:09:37;;;;;;;12.43;10.57;;;21.70;99.90;;;;;;4946699;28;20127;-76
2023/08/19 07:12:04;;;;;;;11.63;10.60;;;21.80;99.90;;;;;;4946222;28;20095;-79
2023/08/19 07:14:31;;;;;;;12.07;10.82;;;21.80;99.90;;;;;;4947766;28;20442;-75
2023/08/19 07:17:03;;;;;;;11.05;9.40;;;21.90;99.90;;;;;;4947527;28;20194;-75
2023/08/19 07:19:39;;;;;;;13.13;9.38;;;21.90;99.90;;;;;;4962729;28;20818;-75
2023/08/19 07:22:06;;;;;;;11.13;10.02;;;21.90;99.90;;;;;;4941897;28;20058;-78
2023/08/19 07:24:33;;;;;;;12.30;10.30;;;22.00;99.90;;;;;;4948198;28;20054;-75
2023/08/19 07:27:02;;;;;;;12.55;9.82;;;22.00;99.90;;;;;;4946240;28;20043;-75
2023/08/19 07:29:28;;;;;;;13.85;9.82;;;22.00;99.90;;;;;;4962590;28;20554;-76
2023/08/19 07:31:55;;;;;;;10.43;9.25;;;22.00;99.90;;;;;;4963339;28;20877;-79
2023/08/19 07:34:20;;;;;;;12.02;9.27;;;22.00;99.90;;;;;;4945948;28;20042;-78
2023/08/19 07:36:51;;;;;;;11.55;9.88;;;22.00;99.90;;;;;;4947618;28;20050;-81
2023/08/19 07:39:16;;;;;;;12.55;9.93;;;22.10;99.90;;;;;;4945859;28;20112;-76
2023/08/19 07:41:42;;;;;;;11.30;9.48;;;22.10;99.90;;;;;;4951198;28;20042;-80
2023/08/19 07:44:08;;;;;;;10.43;8.95;;;22.10;99.90;;;;;;4948428;28;20050;-74
2023/08/19 07:46:35;;;;;;;12.00;9.18;;;22.10;99.90;;;;;;4963654;28;20787;-74
2023/08/19 07:49:01;;;;;;;10.10;8.57;;;22.20;99.90;;;;;;4964440;28;20050;-75
2023/08/19 07:51:27;;;;;;;9.90;8.63;;;22.20;99.90;;;;;;4973395;28;20105;-75
2023/08/19 07:53:53;;;;;;;11.85;8.80;;;22.30;99.90;;;;;;4978844;28;20046;-75
2023/08/19 07:56:18;;;;;;;11.27;8.35;;;22.30;99.90;;;;;;4960561;28;20147;-72
2023/08/19 07:58:44;;;;;;;10.60;8.00;;;22.40;99.90;;;;;;4964928;28;20745;-75
2023/08/19 08:01:10;;;;;;;10.68;8.25;;;22.40;99.90;;;;;;4965183;28;20058;-74
2023/08/19 08:03:39;;;;;;;9.55;7.45;;;22.50;99.90;;;;;;4963365;28;20058;-75
2023/08/19 08:06:06;;;;;;;11.13;8.38;;;22.60;99.90;;;;;;4979711;28;20088;-74
2023/08/19 08:08:32;;;;;;;11.80;7.97;;;22.70;99.90;;;;;;4963321;28;20053;-76
2023/08/19 08:10:58;;;;;;;8.60;7.57;;;22.80;99.90;;;;;;4963202;28;20058;-73
2023/08/19 08:13:24;;;;;;;9.52;7.13;;;23.00;99.90;;;;;;4965184;28;20589;-73
2023/08/19 08:15:50;;;;;;;9.93;7.28;;;23.00;99.90;;;;;;4965022;28;20062;-76
2023/08/19 08:18:16;;;;;;;8.85;6.28;;;23.10;99.90;;;;;;4963514;28;20123;-77
2023/08/19 08:20:42;;;;;;;9.10;5.97;;;23.20;99.90;;;;;;4964022;28;20053;-76
2023/08/19 08:23:08;;;;;;;8.68;6.22;;;23.30;99.90;;;;;;4963469;28;20053;-75
2023/08/19 08:25:34;;;;;;;8.98;6.03;;;23.50;99.90;;;;;;4964847;28;20055;-74
2023/08/19 08:27:59;;;;;;;6.68;5.97;;;23.60;99.90;;;;;;4964236;28;20121;-74
2023/08/19 08:30:25;;;;;;;8.43;6.25;;;23.70;99.90;;;;;;4965458;28;20450;-73
2023/08/19 08:32:51;;;;;;;8.98;5.80;;;23.90;99.90;;;;;;4964330;28;20083;-74
2023/08/19 08:35:17;;;;;;;6.80;6.10;;;24.00;99.90;;;;;;4971949;23;20051;-75
2023/08/19 08:37:44;;;;;;;7.55;6.05;;;24.20;99.90;;;;;;4988781;23;20753;-76
2023/08/19 08:40:10;;;;;;;9.85;6.15;;;24.30;99.90;;;;;;4979255;28;20042;-73
2023/08/19 08:42:36;;;;;;;8.50;6.30;;;24.40;99.90;;;;;;4963979;28;20117;-74
2023/08/19 08:45:02;;;;;;;10.93;6.47;;;24.50;99.90;;;;;;4964457;28;20086;-81
2023/08/19 08:47:30;;;;;;;7.68;5.50;;;24.80;99.90;;;;;;4964540;28;20436;-75
2023/08/19 08:49:58;;;;;;;10.32;5.55;;;25.00;99.90;;;;;;4963659;28;20377;-74
2023/08/19 08:52:24;;;;;;;7.30;5.82;;;25.30;99.90;;;;;;4963546;28;20718;-73
2023/08/19 08:54:51;;;;;;;8.57;6.25;;;25.40;99.90;;;;;;4964761;28;20305;-75
2023/08/19 08:57:17;;;;;;;8.20;5.30;;;25.60;99.90;;;;;;4963292;28;20633;-73
2023/08/19 08:59:44;;;;;;;7.10;4.78;;;25.90;99.90;;;;;;4964555;28;20042;-80
2023/08/19 09:02:14;;;;;;;7.28;5.40;;;26.40;99.90;;;;;;4964202;28;20068;-75
2023/08/19 09:04:44;;;;;;;6.68;4.50;;;26.70;99.90;;;;;;4956345;28;20103;-76
2023/08/19 09:07:24;;;;;;;6.87;4.83;;;27.50;99.90;;;;;;4977224;28;20058;-75
2023/08/19 09:09:52;;;;;;;7.07;4.63;;;28.10;99.90;;;;;;4962748;28;20050;-74
2023/08/19 09:12:20;;;;;;;7.57;5.00;;;28.30;99.90;;;;;;4962561;28;20313;-78
2023/08/19 09:14:51;;;;;;;5.20;4.70;;;28.40;99.90;;;;;;4963065;28;20049;-74
2023/08/19 09:17:17;;;;;;;6.90;4.53;;;28.50;99.90;;;;;;4963624;28;20077;-75
2023/08/19 09:19:43;;;;;;;5.43;3.95;;;28.70;99.90;;;;;;4962299;28;20362;-77
2023/08/19 09:22:15;;;;;;;8.63;5.15;;;28.50;99.90;;;;;;4963262;28;20050;-75
2023/08/19 09:24:41;;;;;;;7.22;4.38;;;28.50;99.90;;;;;;4962524;28;20546;-76
2023/08/19 09:27:07;;;;;;;9.55;5.22;;;28.40;99.90;;;;;;4962324;28;20042;-74
2023/08/19 09:29:34;;;;;;;7.55;4.55;;;28.40;99.90;;;;;;4963196;28;20414;-81
2023/08/19 09:32:00;;;;;;;8.55;4.43;;;28.40;99.90;;;;;;4963224;28;20695;-75
2023/08/19 09:34:26;;;;;;;6.25;4.25;;;28.30;99.90;;;;;;4962837;28;20411;-74
2023/08/19 09:36:56;;;;;;;8.65;4.10;;;28.30;99.90;;;;;;4963076;28;20058;-75
2023/08/19 09:39:26;;;;;;;8.13;4.47;;;28.20;99.90;;;;;;4964090;28;20058;-73
2023/08/19 09:41:58;;;;;;;5.25;4.05;;;28.20;99.90;;;;;;4964367;28;20097;-74
2023/08/19 09:44:28;;;;;;;9.57;4.28;;;28.20;99.90;;;;;;4962020;28;20050;-74
2023/08/19 09:47:01;;;;;;;4.90;3.95;;;28.30;99.90;;;;;;4971316;28;20095;-75
2023/08/19 09:49:27;;;;;;;7.35;3.97;;;28.40;99.90;;;;;;4964613;28;20070;-75
2023/08/19 09:51:56;;;;;;;5.85;3.63;;;28.70;99.90;;;;;;4964062;28;20057;-74
2023/08/19 09:54:23;;;;;;;6.43;4.28;;;29.00;99.90;;;;;;4966551;28;20051;-76
2023/08/19 09:56:59;;;;;;;6.47;3.58;;;29.00;99.90;;;;;;4960773;28;20054;-75
2023/08/19 09:59:41;;;;;;;5.25;3.65;;;29.10;99.70;;;;;;4967029;28;20058;-76
2023/08/19 10:02:34;;;;;;;8.73;3.90;;;29.00;99.40;;;;;;4978204;28;20053;-76
2023/08/19 10:05:21;;;;;;;7.80;3.78;;;29.10;99.50;;;;;;4965489;28;20157;-78
2023/08/19 10:08:24;;;;;;;5.55;3.30;;;29.10;99.50;;;;;;4960360;28;20055;-75
2023/08/19 10:11:20;;;;;;;5.85;4.00;;;29.20;99.70;;;;;;4971868;28;20058;-76
2023/08/19 10:14:15;;;;;;;7.43;3.47;;;29.30;99.40;;;;;;4976369;23;20049;-78
2023/08/19 10:17:12;;;;;;;5.30;3.60;;;29.50;99.50;;;;;;4989969;23;20462;-74
2023/08/19 10:20:13;;;;;;;7.53;3.60;;;29.80;99.70;;;;;;4998776;28;20046;-79
2023/08/19 10:22:59;;;;;;;6.03;3.13;;;30.10;99.40;;;;;;4953553;28;20071;-75
2023/08/19 10:25:46;;;;;;;6.18;3.58;;;30.20;99.00;;;;;;4952514;28;20547;-74
2023/08/19 10:28:38;;;;;;;5.72;2.95;;;30.30;99.10;;;;;;4970386;28;20082;-74
2023/08/19 10:31:43;;;;;;;7.20;2.72;;;30.40;98.90;;;;;;4951492;28;20145;-75
2023/08/19 10:34:26;;;;;;;5.72;2.80;;;30.30;98.50;;;;;;4950359;28;20781;-74
2023/08/19 10:37:19;;;;;;;6.03;3.22;;;30.20;98.00;;;;;;4908083;29;20050;-75
2023/08/19 10:40:20;;;;;;;5.10;3.17;;;30.20;97.80;;;;;;4941556;28;20131;-74
2023/08/19 10:43:14;;;;;;;8.18;4.47;;;30.10;97.40;;;;;;4925538;28;20113;-73
2023/08/19 10:46:04;;;;;;;6.07;3.47;;;29.80;97.20;;;;;;4935030;28;20114;-75
2023/08/19 10:48:57;;;;;;;7.70;3.97;;;29.50;97.40;;;;;;4939255;28;20048;-74
2023/08/19 10:52:09;;;;;;;6.50;3.55;;;29.20;98.00;;;;;;4917542;29;20543;-74
2023/08/19 10:54:54;;;;;;;5.78;2.97;;;28.80;98.50;;;;;;4937124;29;20063;-75
2023/08/19 10:57:38;;;;;;;6.13;4.18;;;28.50;98.90;;;;;;4936483;28;20051;-75
2023/08/19 11:00:22;;;;;;;6.28;4.20;;;28.30;99.30;;;;;;4990302;23;20046;-78
2023/08/19 11:03:03;;;;;;;8.05;4.63;;;28.10;99.90;;;;;;4966331;28;20066;-78
2023/08/19 11:06:11;;;;;;;6.07;4.43;;;28.70;99.90;;;;;;4947242;28;20059;-75
2023/08/19 11:09:03;;;;;;;7.90;4.00;;;27.80;99.90;;;;;;4960295;28;20063;-76
2023/08/19 11:11:52;;;;;;;5.00;3.67;;;27.60;99.90;;;;;;4944963;28;20109;-76
2023/08/19 11:14:31;;;;;;;5.13;3.95;;;27.20;99.90;;;;;;4950611;28;20133;-77
2023/08/19 11:17:06;;;;;;;7.93;5.20;;;27.10;99.90;;;;;;4945504;28;20074;-78
2023/08/19 11:19:41;;;;;;;6.47;5.15;;;24.70;99.90;;;;;;4951466;28;20054;-78
2023/08/19 11:22:16;;;;;;;7.03;4.63;;;26.90;99.90;;;;;;4945414;28;20050;-80
2023/08/19 11:24:46;;;;;;;8.23;5.60;;;26.80;99.90;;;;;;4952675;28;20050;-80
2023/08/19 11:27:19;;;;;;;6.22;5.47;;;26.80;99.90;;;;;;4966943;28;20402;-80
2023/08/19 11:29:48;;;;;;;9.82;5.68;;;26.70;99.90;;;;;;4951659;28;20050;-79
2023/08/19 11:32:20;;;;;;;7.60;5.50;;;26.60;99.90;;;;;;4969036;28;20049;-79
2023/08/19 11:34:50;;;;;;;7.13;5.28;;;26.60;99.90;;;;;;4951044;28;20302;-78
2023/08/19 11:37:20;;;;;;;6.18;5.28;;;26.60;99.90;;;;;;4954518;28;20062;-79
2023/08/19 11:39:48;;;;;;;6.88;5.35;;;26.70;99.90;;;;;;4966112;28;20061;-79
2023/08/19 11:42:16;;;;;;;10.40;6.82;;;26.70;99.90;;;;;;4966995;28;20143;-77
2023/08/19 11:44:44;;;;;;;6.25;5.35;;;26.90;99.90;;;;;;4952543;28;20065;-77
2023/08/19 11:47:14;;;;;;;9.57;5.82;;;27.10;99.90;;;;;;4968418;28;20560;-76
2023/08/19 11:49:46;;;;;;;7.28;5.68;;;27.30;99.90;;;;;;4956964;28;20089;-76
2023/08/19 11:52:27;;;;;;;;;;;27.50;99.90;;;;;;4970178;28;20127;-75
2023/08/19 11:54:58;;;;;;;;;;;27.60;99.90;;;;;;4986881;23;19956;-70
2023/08/19 11:57:25;;;;;;;8.55;6.40;;;27.70;99.90;;;;;;4967642;28;20052;-70
2023/08/19 11:59:58;;;;;;;8.10;6.18;;;27.70;99.90;;;;;;4959720;28;20054;-70
2023/08/19 12:02:45;;;;;;;10.40;6.97;;;27.50;99.90;;;;;;4982048;28;20068;-70
2023/08/19 12:05:11;;;;;;;8.63;7.43;;;27.50;99.90;;;;;;4966903;28;20415;-70
2023/08/19 12:07:43;;;;;;;12.32;8.05;;;27.70;99.90;;;;;;4975138;28;20597;-71
2023/08/19 12:10:09;;;;;;;11.38;7.72;;;27.70;99.90;;;;;;4955024;28;20137;-70
2023/08/19 12:12:36;;;;;;;9.48;7.28;;;27.70;99.90;;;;;;4950315;28;20133;-69
2023/08/19 12:15:03;;;;;;;8.20;6.75;;;27.80;99.90;;;;;;4960786;28;20050;-71
2023/08/19 12:17:29;;;;;;;9.20;7.43;;;27.90;99.90;;;;;;4954845;28;20046;-70
2023/08/19 12:23:15;;;;;;;10.55;8.88;;;28.00;99.90;;;;;;5078969;27;20417;-71
2023/08/19 12:25:54;;;;;;;12.30;10.32;;;28.00;99.90;;;;;;5041574;28;20092;-69
2023/08/19 12:28:25;;;;;;;13.15;10.40;;;28.10;99.90;;;;;;5037076;28;20064;-69
2023/08/19 12:30:53;;;;;;;12.18;10.30;;;28.30;99.90;;;;;;5037605;28;20033;-69
2023/08/19 12:33:20;;;;;;;12.68;11.13;;;28.30;99.90;;;;;;5037199;28;20049;-70
2023/08/19 12:35:48;;;;;;;12.48;10.65;;;28.30;99.90;;;;;;5039323;28;20596;-71
2023/08/19 12:38:16;;;;;;;11.70;10.48;;;28.20;99.90;;;;;;5043736;28;20084;-68
2023/08/19 12:40:43;;;;;;;15.43;11.35;;;28.00;99.90;;;;;;5045969;28;20496;-69
2023/08/19 12:43:10;;;;;;;14.55;11.02;;;27.90;99.90;;;;;;5053720;28;20545;-69
2023/08/19 12:45:37;;;;;;;13.30;10.93;;;27.80;99.90;;;;;;5055865;28;20057;-70
2023/08/19 12:48:03;;;;;;;12.75;10.35;;;27.90;99.90;;;;;;5053671;28;20140;-69
2023/08/19 12:50:30;;;;;;;12.65;11.40;;;27.90;99.90;;;;;;5057520;28;20056;-70
2023/08/19 12:52:56;;;;;;;14.05;12.00;;;27.90;99.90;;;;;;5062030;28;20076;-72
2023/08/19 12:55:24;;;;;;;16.80;15.05;;;27.80;99.90;;;;;;5038145;28;20056;-72